Home > Products > Valid Products > TAF

000
FTUS41 KBGM 211700 RRA
TAFELM
TAF
KELM 211744Z 2118/2218 28010G20KT P6SM -SHSN SCT025 BKN040
     FM212100 28008KT P6SM BKN050
     FM220000 VRB03KT P6SM FEW050 BKN150
     FM221500 13005KT P6SM OVC040 PROB30 2215/2218 3SM -FZRAPLSN BR=



000
FTUS41 KBGM 211700 RRA
TAFITH
TAF
KITH 211744Z 2118/2218 32012G20KT P6SM -SHSN SCT012 BKN025
      TEMPO 2118/2120 2SM -SHSN OVC012
     FM212000 29008KT P6SM -SHSN SCT025 BKN035
     FM220000 VRB03KT P6SM SCT035 BKN150
     FM221500 16008KT P6SM OVC035 PROB30 2215/2218 3SM -FZRAPLSN BR=



000
FTUS41 KBGM 211700 RRA
TAFAVP
TAF
KAVP 211744Z 2118/2218 32010G20KT P6SM BKN040
     FM212300 VRB03KT P6SM FEW040 BKN150
     FM221600 14005KT P6SM BKN040=



000
FTUS41 KBGM 211700 RRA
TAFBGM
TAF
KBGM 211744Z 2118/2218 32012G20KT P6SM -SHSN SCT012 BKN025
      TEMPO 2118/2120 2SM -SHSN OVC012
     FM212000 29008KT P6SM -SHSN SCT025 BKN035
     FM220000 VRB03KT P6SM SCT035 BKN150
     FM221500 16008KT P6SM OVC035 PROB30 2215/2218 3SM -FZRAPLSN BR=



000
FTUS41 KBGM 211700 RRA
TAFSYR
TAF
KSYR 211744Z 2118/2218 30012KT P6SM -SHSN BKN035
      TEMPO 2120/2123 2SM -SHSN OVC025
     FM212300 28005KT 2SM -SHSN OVC025
     FM220200 VRB03KT P6SM SCT040 BKN150
     FM221500 11005KT P6SM OVC040 PROB30 2215/2218 3SM -FZRAPLSN BR=



000
FTUS41 KBGM 211500 AAB
TAFSYR
TAF AMD
KSYR 211530Z 2116/2212 30012G22KT P6SM -SHSN SCT025 BKN035
      TEMPO 2116/2119 2SM -SHSN OVC025
     FM212300 29010KT P6SM -SHSN BKN035
     FM220000 25007KT P6SM SCT040=



000
FTUS41 KBGM 211500 AAA
TAFBGM
TAF AMD
KBGM 211530Z 2116/2212 31012G20KT P6SM -SHSN SCT025 BKN035
      TEMPO 2116/2118 2SM -SHSN OVC025
     FM212000 29008KT P6SM BKN035
     FM220000 24005KT P6SM SCT040=



000
FTUS41 KBGM 211500 AAA
TAFAVP
TAF AMD
KAVP 211530Z 2116/2212 32010G20KT P6SM BKN040
     FM212100 30007KT P6SM SCT040
     FM220000 25004KT P6SM SKC=



000
FTUS41 KBGM 211500 AAB
TAFELM
TAF AMD
KELM 211530Z 2116/2212 29010G18KT P6SM -SHSN SCT025 BKN040
     FM212000 28008KT P6SM BKN050
     FM220000 24003KT P6SM SKC=



000
FTUS41 KBGM 211500 AAB
TAFITH
TAF AMD
KITH 211530Z 2116/2212 32012G20KT P6SM -SHSN SCT008 BKN025
      TEMPO 2116/2118 2SM -SHSN OVC008
     FM212000 29010KT P6SM BKN035
     FM220000 25005KT P6SM SCT040=



000
FTUS41 KBGM 211300 AAA
TAFBGM
TAF AMD
KBGM 211319Z 2113/2212 31012G20KT P6SM -SHSN SCT025 BKN035
      TEMPO 2113/2116 2SM -SHSN BR OVC025
     FM212000 29008KT P6SM BKN035
     FM220000 24005KT P6SM SCT040=



000
FTUS41 KBGM 211300 AAA
TAFELM
TAF AMD
KELM 211318Z 2113/2212 29010G18KT P6SM -SHSN SCT025 BKN040
     FM212000 28008KT P6SM BKN050
     FM220000 24003KT P6SM SKC=



000
FTUS41 KBGM 211300 AAA
TAFITH
TAF AMD
KITH 211317Z 2113/2212 28010KT P6SM -SHSN SCT025 BKN035
      TEMPO 2113/2116 2SM -SHSN BR OVC025
     FM211600 32012G18KT 3SM -SHSN BR BKN025
     FM212000 29010KT P6SM BKN035
     FM220000 25005KT P6SM SCT040=



000
FTUS41 KBGM 211300 AAA
TAFSYR
TAF AMD
KSYR 211313Z 2113/2212 27012KT 5SM -SHSN BR SCT015 OVC035
      TEMPO 2113/2116 2SM -SHSN BR OVC015
     FM211600 30012G22KT P6SM -SHSN BKN025
     FM212100 29010KT P6SM -SHSN BKN035
     FM220000 25007KT P6SM SCT040=



000
FTUS41 KBGM 211100
TAFELM
TAF
KELM 211139Z 2112/2212 26010KT P6SM SCT040
     FM211400 29010G18KT P6SM BKN040
     FM212000 28008KT P6SM BKN040
     FM220000 24003KT P6SM SKC=



000
FTUS41 KBGM 211100
TAFBGM
TAF
KBGM 211139Z 2112/2212 27010KT P6SM SCT035
     FM211400 31012G20KT P6SM -SHSN BKN035
     FM212000 29008KT P6SM BKN035
     FM220000 24005KT P6SM SCT040=



000
FTUS41 KBGM 211100
TAFITH
TAF
KITH 211139Z 2112/2212 28010KT P6SM BKN030
     FM211400 32012G18KT P6SM -SHSN BKN025
     FM212000 29010KT P6SM BKN035
     FM220000 25005KT P6SM SCT040=



000
FTUS41 KBGM 211100
TAFAVP
TAF
KAVP 211139Z 2112/2212 24008KT P6SM SCT040
     FM211500 32010G20KT P6SM BKN040
     FM212100 30007KT P6SM SCT040
     FM220000 25004KT P6SM SKC=



000
FTUS41 KBGM 211100
TAFSYR
TAF
KSYR 211139Z 2112/2212 27012KT 5SM -SHSN BR SCT015 OVC035
      TEMPO 2112/2113 2SM -SHSN BR OVC015
     FM211400 30012G22KT P6SM -SHSN BKN025
     FM212000 29010KT P6SM -SHSN BKN035
     FM220000 25007KT P6SM SCT040=



000
FTUS41 KBGM 210800 AAA
TAFITH
TAF AMD
KITH 210855Z 2109/2206 28010KT P6SM SCT060
     FM211400 31012G20KT P6SM -SHSN BKN025
     FM212000 30010KT P6SM BKN035
     FM220000 25005KT P6SM SCT040=



000
FTUS41 KBGM 210800 AAA
TAFSYR
TAF AMD
KSYR 210855Z 2109/2206 26012KT 2SM -SHSN BR BKN015 OVC025
      TEMPO 2110/2112 1/2SM SHSN VV005
     FM211300 30012G22KT 5SM -SHSN BR BKN025
     FM211800 30010G18KT P6SM -SHSN BKN035
     FM220000 26007KT P6SM SCT040=



000
FTUS41 KBGM 210800 AAA
TAFELM
TAF AMD
KELM 210855Z 2109/2206 26010KT P6SM SCT050
     FM211400 29010G18KT P6SM BKN035
     FM212000 29008KT P6SM BKN040
     FM220000 25003KT P6SM SCT040=



000
FTUS41 KBGM 210800 AAA
TAFAVP
TAF AMD
KAVP 210855Z 2109/2206 24008KT P6SM SCT050
     FM211500 32010G20KT P6SM BKN040
     FM212100 30007KT P6SM SCT040
     FM220000 25004KT P6SM SCT040=



000
FTUS41 KBGM 210800 AAA
TAFBGM
TAF AMD
KBGM 210855Z 2109/2206 27010KT P6SM SCT060
     FM211400 31012G20KT P6SM -SHSN BKN035
     FM212000 29008KT P6SM BKN035
     FM220000 25005KT P6SM SCT040=



000
FTUS41 KBGM 210500 RRA
TAFSYR
TAF
KSYR 210541Z 2106/2206 25012G20KT P6SM -SHSN SCT025 BKN040
     FM210800 26012KT 2SM -SHSN BR BKN015 OVC025
      TEMPO 2109/2112 1/2SM SHSN VV005
     FM211300 30012G22KT 5SM -SHSN BR BKN025
     FM211800 30010G18KT P6SM -SHSN BKN035
     FM220000 26007KT P6SM SCT040=



000
FTUS41 KBGM 210500 RRA
TAFBGM
TAF
KBGM 210541Z 2106/2206 27010KT P6SM BKN060
     FM211400 31012G20KT P6SM -SHSN BKN035
     FM212000 29008KT P6SM BKN035
     FM220000 25005KT P6SM SCT040=



000
FTUS41 KBGM 210500 RRA
TAFELM
TAF
KELM 210541Z 2106/2206 26010KT P6SM BKN060
     FM211400 29010G18KT P6SM BKN035
     FM212000 29008KT P6SM BKN040
     FM220000 25003KT P6SM SCT040=



000
FTUS41 KBGM 210500 RRA
TAFAVP
TAF
KAVP 210541Z 2106/2206 24008KT P6SM SCT050
     FM211500 32010G20KT P6SM BKN040
     FM212100 30007KT P6SM SCT040
     FM220000 25004KT P6SM SCT040=



000
FTUS41 KBGM 210500 RRA
TAFITH
TAF
KITH 210541Z 2106/2206 28010KT P6SM BKN060
     FM211400 31012G20KT P6SM -SHSN BKN025
     FM212000 30010KT P6SM BKN035
     FM220000 25005KT P6SM SCT040=



000
FTUS41 KBGM 210100 AAA
TAFELM
TAF AMD
KELM 210147Z 2102/2124 25011KT P6SM BKN060
     FM210400 26011KT P6SM -SHSN BKN050
     FM211400 28011KT P6SM BKN045=



000
FTUS41 KBGM 210100 AAA
TAFITH
TAF AMD
KITH 210104Z 2101/2124 28012KT P6SM -SHSN BKN035
     FM210600 28011KT P6SM -SHSN SCT025 OVC035
     FM211400 30013G20KT P6SM -SHSN BKN035
     FM212000 30011KT P6SM BKN035=



000
FTUS41 KBGM 202300
TAFELM
TAF
KELM 202331Z 2100/2124 25012G20KT P6SM BKN060
     FM210400 26011KT P6SM -SHSN BKN050
     FM211400 28011KT P6SM BKN045=



000
FTUS41 KBGM 202300
TAFSYR
TAF
KSYR 202331Z 2100/2124 25012KT P6SM -SHSN BKN040
     FM210800 28011KT 1SM -SHSN BR BKN025 OVC035
     FM211400 29012G20KT 4SM -SHSN BR BKN025
     FM212000 29011KT P6SM -SHSN BKN035=



000
FTUS41 KBGM 202300
TAFITH
TAF
KITH 202331Z 2100/2124 36012KT P6SM -SHSN BKN035
     FM210600 28011KT P6SM -SHSN SCT025 OVC035
     FM211400 30013G20KT P6SM -SHSN BKN035
     FM212000 30011KT P6SM BKN035=



000
FTUS41 KBGM 202300
TAFBGM
TAF
KBGM 202331Z 2100/2124 26012KT P6SM -SHSN OVC060
     FM210900 27011KT P6SM -SHSN SCT025 BKN035
     FM211500 30011KT P6SM BKN035=



000
FTUS41 KBGM 202300
TAFAVP
TAF
KAVP 202331Z 2100/2124 26012G20KT P6SM SCT050
     FM211300 30011KT P6SM BKN050
     FM212000 30005KT P6SM SCT050=



000
FTUS41 KBGM 202300 AAA
TAFSYR
TAF AMD
KSYR 202305Z 2023/2118 24011KT P6SM BKN040
     FM210800 28011G18KT 2SM -SHSN BR BKN015 OVC025
     FM211400 29012G20KT 3SM -SHSN BR SCT015 OVC025=



000
FTUS41 KBGM 202300 AAA
TAFAVP
TAF AMD
KAVP 202304Z 2023/2118 26012G20KT P6SM SCT050
     FM211300 30012G20KT P6SM BKN050=



000
FTUS41 KBGM 202300 AAA
TAFBGM
TAF AMD
KBGM 202304Z 2023/2118 25011KT P6SM BKN040
     FM210000 26011KT P6SM -SHSN OVC040
     FM210900 28011G18KT P6SM -SHSN SCT025 BKN035
     FM211500 30012G20KT P6SM VCSH BKN035=



000
FTUS41 KBGM 202300 AAA
TAFITH
TAF AMD
KITH 202303Z 2023/2118 36011KT P6SM -SHSN OVC040
     FM210600 28011G18KT P6SM -SHSN OVC030
     FM211400 30013G22KT P6SM -SHSN BKN035=



000
FTUS41 KBGM 201800 AAA
TAFSYR
TAF AMD
KSYR 201826Z 2018/2118 25013G21KT P6SM -SHSN SCT025 BKN040
      TEMPO 2018/2020 4SM -SHSN BKN025 OVC035
     FM202300 26012G20KT P6SM VCSH SCT025 BKN040
     FM210800 28011G18KT 2SM -SHSN BR BKN015 OVC025
     FM211400 29012G20KT 3SM -SHSN BR SCT015 OVC025=



000
FTUS41 KBGM 201700
TAFBGM
TAF
KBGM 201739Z 2018/2118 25013G22KT P6SM VCSH SCT025 BKN040
     FM210000 26012G20KT 3SM -SHSN BR BKN025 OVC040
     FM210900 28011G18KT P6SM -SHSN SCT025 BKN035
     FM211500 30012G20KT P6SM VCSH BKN035=



000
FTUS41 KBGM 201700
TAFITH
TAF
KITH 201739Z 2018/2118 26014G22KT P6SM -SHSN BKN040
     FM202200 26012G19KT 4SM -SHSN BR BKN030 OVC040
     FM210600 28011G18KT P6SM -SHSN OVC030
     FM211400 30013G22KT P6SM -SHSN BKN035=



000
FTUS41 KBGM 201700
TAFSYR
TAF
KSYR 201739Z 2018/2118 25013G21KT P6SM -SHSN SCT025 BKN040
     FM202300 26012G20KT P6SM VCSH SCT025 BKN040
     FM210800 28011G18KT 2SM -SHSN BR BKN015 OVC025
     FM211400 29012G20KT 3SM -SHSN BR SCT015 OVC025=



000
FTUS41 KBGM 201700
TAFAVP
TAF
KAVP 201739Z 2018/2118 25012G22KT P6SM BKN050
     FM202200 26010KT P6SM SCT050
     FM211300 30012G20KT P6SM BKN050=



000
FTUS41 KBGM 201700
TAFELM
TAF
KELM 201739Z 2018/2118 26013G22KT P6SM VCSH BKN050
     FM210000 27010KT 6SM -SHSN SCT030 BKN040
     FM211300 29011G18KT P6SM VCSH BKN045=



000
FTUS41 KBGM 201300 AAA
TAFSYR
TAF AMD
KSYR 201355Z 2014/2112 27012G20KT P6SM -SHSN SCT025 OVC040
      TEMPO 2014/2016 29017G25KT 2SM -SHSN BR OVC025
     FM201600 25015G25KT P6SM -SHSN SCT025 BKN040
     FM202200 26012KT P6SM -SHSN BKN035
     FM210900 28010KT 3SM -SHSN BR OVC025=



000
FTUS41 KBGM 201100
TAFAVP
TAF
KAVP 201129Z 2012/2112 23005KT P6SM BKN060
     FM201400 24012G22KT P6SM BKN050
     FM202200 25010KT P6SM SCT050=



000
FTUS41 KBGM 201100
TAFELM
TAF
KELM 201129Z 2012/2112 24010G18KT P6SM BKN045
     FM201400 25015G25KT P6SM BKN045
     FM202200 26010KT P6SM BKN040=



000
FTUS41 KBGM 201100
TAFSYR
TAF
KSYR 201129Z 2012/2112 22010KT P6SM -SHSN SCT025 OVC040
      TEMPO 2012/2014 3SM -SHSN BR OVC025
     FM201400 25015G25KT P6SM -SHSN SCT025 BKN040
     FM202200 26012KT P6SM -SHSN BKN035
     FM210900 28010KT 3SM -SHSN BR OVC025=



000
FTUS41 KBGM 201100
TAFITH
TAF
KITH 201129Z 2012/2112 19010KT P6SM SCT050
     FM201400 25012G22KT P6SM BKN040
     FM202200 26012KT P6SM BKN040
     FM210900 29010KT P6SM -SHSN OVC025=



000
FTUS41 KBGM 201100
TAFBGM
TAF
KBGM 201129Z 2012/2112 22010KT P6SM BKN040
     FM201400 25012G22KT P6SM BKN040
     FM202200 26010KT P6SM BKN040
     FM210900 28010KT P6SM -SHSN SCT025 BKN035=



000
FTUS41 KBGM 201000 AAB
TAFSYR
TAF AMD
KSYR 201007Z 2010/2106 22010G18KT P6SM SCT025 BKN040
      TEMPO 2010/2012 3SM -SHSN BR OVC025
     FM201400 25015G25KT P6SM -SHSN BKN040
     FM202200 26012KT P6SM -SHSN BKN035=



000
FTUS41 KBGM 200800 AAA
TAFBGM
TAF AMD
KBGM 200857Z 2009/2106 20010G18KT P6SM BKN040
     FM201400 25012G22KT P6SM BKN045
     FM202200 25010KT P6SM BKN040=



000
FTUS41 KBGM 200800 AAA
TAFELM
TAF AMD
KELM 200857Z 2009/2106 22010G18KT P6SM BKN050
     FM201400 25015G25KT P6SM BKN050
     FM202200 26010KT P6SM BKN050=



000
FTUS41 KBGM 200800 AAA
TAFAVP
TAF AMD
KAVP 200857Z 2009/2106 21007KT P6SM BKN070
     FM201400 24015G22KT P6SM BKN050
     FM202200 25010KT P6SM SCT050=



000
FTUS41 KBGM 200800 AAA
TAFITH
TAF AMD
KITH 200857Z 2009/2106 19010G18KT P6SM BKN040
     FM201400 25012G22KT P6SM BKN045
     FM202200 26012KT P6SM BKN040=



000
FTUS41 KBGM 200800 AAA
TAFSYR
TAF AMD
KSYR 200857Z 2009/2106 22010G18KT P6SM BKN040
     FM201400 25015G25KT P6SM -SHSN BKN040
     FM202200 26012KT P6SM -SHSN BKN035=



000
FTUS41 KBGM 200500
TAFITH
TAF
KITH 200539Z 2006/2106 19010G18KT P6SM BKN040
     FM201400 25012G22KT P6SM BKN045
     FM202200 26012KT P6SM BKN040=



000
FTUS41 KBGM 200500
TAFAVP
TAF
KAVP 200539Z 2006/2106 21007KT P6SM BKN070
     FM201400 24015G22KT P6SM BKN050
     FM202200 25010KT P6SM SCT050=



000
FTUS41 KBGM 200500
TAFELM
TAF
KELM 200539Z 2006/2106 22010G18KT P6SM BKN050
     FM201400 25015G25KT P6SM BKN050
     FM202200 26010KT P6SM BKN050=



000
FTUS41 KBGM 200500
TAFBGM
TAF
KBGM 200539Z 2006/2106 20010G18KT P6SM BKN040
     FM201400 25012G22KT P6SM BKN045
     FM202200 25010KT P6SM BKN040=



000
FTUS41 KBGM 200500
TAFSYR
TAF
KSYR 200539Z 2006/2106 22010G18KT P6SM BKN040
     FM201400 25015G25KT P6SM -SHSN BKN040
     FM202200 26012KT P6SM -SHSN BKN035=



000
FTUS41 KBGM 200300 AAA
TAFBGM
TAF AMD
KBGM 200331Z 2004/2024 19011G19KT P6SM BKN050 OVC070
     FM201800 25012G20KT P6SM OVC050=



000
FTUS41 KBGM 200300 AAA
TAFELM
TAF AMD
KELM 200331Z 2004/2024 22010G18KT P6SM OVC045
     FM201500 25013G21KT P6SM BKN080=



000
FTUS41 KBGM 200300 AAA
TAFELM
TAF AMD
KELM 200331Z 2004/2024 22010G18KT P6SM OVC045
     FM201500 25013G21KT P6SM BKN080=



000
FTUS41 KBGM 200300 AAA
TAFBGM
TAF AMD
KBGM 200331Z 2004/2024 19011G19KT P6SM BKN050 OVC070
     FM201800 25012G20KT P6SM OVC050=



000
FTUS41 KBGM 200300 AAA
TAFSYR
TAF AMD
KSYR 200330Z 2004/2024 19013G23KT P6SM -SHSN BKN045 OVC080
     FM200500 22010G18KT P6SM BKN050
     FM201500 26013G22KT P6SM BKN070=



000
FTUS41 KBGM 200300 AAA
TAFSYR
TAF AMD
KSYR 200330Z 2004/2024 19013G23KT P6SM -SHSN BKN045 OVC080
     FM200500 22010G18KT P6SM BKN050
     FM201500 26013G22KT P6SM BKN070=



000
FTUS41 KBGM 200300 AAA
TAFITH
TAF AMD
KITH 200330Z 2004/2024 17010G18KT P6SM OVC050
     FM201600 26013G22KT P6SM BKN070=



000
FTUS41 KBGM 200300 AAA
TAFITH
TAF AMD
KITH 200330Z 2004/2024 17010G18KT P6SM OVC050
     FM201600 26013G22KT P6SM BKN070=



000
FTUS41 KBGM 192300
TAFBGM
TAF
KBGM 192325Z 2000/2024 19008G17KT P6SM BKN070 OVC080
     FM200200 21011G20KT P6SM BKN040
     FM201800 25012G20KT P6SM OVC050=



000
FTUS41 KBGM 192300
TAFITH
TAF
KITH 192325Z 2000/2024 20013G21KT P6SM -SHSN BKN050
      TEMPO 2000/2001 5SM -SHSN OVC025
     FM200400 21015G25KT P6SM BKN040
     FM201600 26013G22KT P6SM BKN070=



000
FTUS41 KBGM 192300
TAFELM
TAF
KELM 192325Z 2000/2024 17004KT P6SM OVC050
     FM200200 23008KT P6SM BKN060
     FM201500 25013G21KT P6SM BKN080=



000
FTUS41 KBGM 192300
TAFAVP
TAF
KAVP 192325Z 2000/2024 21007KT P6SM OVC090
     FM201300 24015G22KT P6SM BKN050
     FM201900 25015G22KT P6SM BKN100=



000
FTUS41 KBGM 192300
TAFSYR
TAF
KSYR 192325Z 2000/2024 19010KT 3SM -SHSN OVC035
     FM200100 22012KT P6SM -SHSN OVC070
     FM200500 22010KT P6SM BKN050
     FM201500 26013G22KT P6SM BKN070=



000
FTUS41 KBGM 191700
TAFITH
TAF
KITH 191739Z 1918/2018 20011KT P6SM BKN045
      TEMPO 1922/2002 3SM -SHSN
     FM200200 20015KT P6SM BKN040=



000
FTUS41 KBGM 191700
TAFAVP
TAF
KAVP 191739Z 1918/2018 22010KT P6SM SKC
     FM191900 22008KT P6SM SCT050 BKN250
     FM200100 21007KT P6SM BKN050=



000
FTUS41 KBGM 191700
TAFSYR
TAF
KSYR 191739Z 1918/2018 24012G20KT P6SM BKN040
     FM191900 20010KT P6SM OVC040
     FM192300 18012KT 4SM -SHSN OVC025
     FM200300 21015KT P6SM BKN040=



000
FTUS41 KBGM 191700
TAFBGM
TAF
KBGM 191739Z 1918/2018 23010KT P6SM SCT040
     FM192000 19008KT P6SM BKN040
      TEMPO 1922/2002 3SM -SHSN
     FM200200 19012KT P6SM BKN040=



000
FTUS41 KBGM 191700
TAFELM
TAF
KELM 191739Z 1918/2018 22010KT P6SM BKN040
      TEMPO 1921/2001 3SM -SHSN
     FM200200 23008KT P6SM BKN040=



000
FTUS41 KBGM 191100
TAFBGM
TAF
KBGM 191130Z 1912/2012 23010KT P6SM SCT040
     FM192000 19008KT P6SM BKN040
     FM200000 18012KT P6SM -SHSN OVC035
     FM200300 19012KT P6SM BKN040=



000
FTUS41 KBGM 191100
TAFELM
TAF
KELM 191130Z 1912/2012 24010KT P6SM SCT050
     FM191800 22010KT P6SM BKN040
     FM192300 22008KT P6SM -SHSN OVC035
     FM200200 23008KT P6SM BKN040=



000
FTUS41 KBGM 191100
TAFSYR
TAF
KSYR 191130Z 1912/2012 24012G20KT P6SM BKN040
     FM191900 20010KT P6SM OVC040
     FM192200 18012KT 4SM -SHSN OVC025
     FM200300 21015KT P6SM BKN040=



000
FTUS41 KBGM 191100
TAFITH
TAF
KITH 191130Z 1912/2012 22010KT P6SM SCT040
     FM191800 20011KT P6SM BKN045
     FM192300 18015KT P6SM -SHSN OVC035
     FM200200 20015KT P6SM BKN040=



000
FTUS41 KBGM 191100
TAFAVP
TAF
KAVP 191130Z 1912/2012 22010KT P6SM SKC
     FM191900 22008KT P6SM SCT050 BKN250
     FM200100 21007KT P6SM BKN050=



000
FTUS41 KBGM 191100 AAB
TAFSYR
TAF AMD
KSYR 191104Z 1911/2006 24012G20KT P6SM BKN040
     FM191900 20010KT P6SM OVC040
     FM192200 18012KT 4SM -SHSN OVC025=



000
FTUS41 KBGM 190900 AAA
TAFITH
TAF AMD
KITH 190904Z 1909/2006 22010KT P6SM SCT040
     FM191800 20011KT P6SM BKN045
     FM192300 18015KT P6SM -SHSN OVC035=



000
FTUS41 KBGM 190900 AAA
TAFBGM
TAF AMD
KBGM 190904Z 1909/2006 25010KT P6SM SKC
     FM191300 23010KT P6SM SCT045
     FM192000 19008KT P6SM BKN040
     FM200000 18012KT P6SM -SHSN OVC035=



000
FTUS41 KBGM 190900 AAA
TAFAVP
TAF AMD
KAVP 190904Z 1909/2006 24010KT P6SM SKC
     FM191900 22008KT P6SM SCT050 BKN250
     FM200100 21007KT P6SM OVC050=



000
FTUS41 KBGM 190900 AAA
TAFSYR
TAF AMD
KSYR 190904Z 1909/2006 24015G22KT P6SM BKN050
     FM191900 20010KT P6SM OVC040
     FM192200 18012KT 4SM -SHSN OVC025=



000
FTUS41 KBGM 190900 AAB
TAFELM
TAF AMD
KELM 190904Z 1909/2006 24010KT P6SM SCT050
     FM191800 22010KT P6SM BKN040
     FM192300 22008KT P6SM -SHSN OVC035=



000
FTUS41 KBGM 190800 AAA
TAFELM
TAF AMD
KELM 190825Z 1908/2006 25010KT P6SM SCT050
     FM191500 22010KT P6SM BKN040
     FM192300 21008KT P6SM -SHSN OVC035=



000
FTUS41 KBGM 190500
TAFBGM
TAF
KBGM 190536Z 1906/2006 25012G20KT P6SM SCT040
     FM191300 23010KT P6SM SCT045 BKN250
     FM200000 18012KT P6SM -SHSN OVC035=



000
FTUS41 KBGM 190500
TAFITH
TAF
KITH 190536Z 1906/2006 24010KT P6SM BKN040
     FM191200 21011KT P6SM BKN045
     FM192100 18011KT P6SM OVC040
     FM200000 18015KT P6SM -SHSN OVC035=



000
FTUS41 KBGM 190500
TAFSYR
TAF
KSYR 190536Z 1906/2006 24020G30KT P6SM BKN050
     FM191100 24015G22KT P6SM BKN050
     FM191900 18010KT P6SM OVC040
     FM200000 18012KT 4SM -SHSN OVC025=



000
FTUS41 KBGM 190500
TAFAVP
TAF
KAVP 190536Z 1906/2006 24010G18KT P6SM SKC
     FM191000 23008KT P6SM SCT050 BKN250
     FM200100 21007KT P6SM OVC050=



000
FTUS41 KBGM 190500
TAFELM
TAF
KELM 190536Z 1906/2006 25012G20KT P6SM SCT050
     FM191200 22010KT P6SM BKN040
     FM192300 21008KT P6SM -SHSN OVC035=



000
FTUS41 KBGM 182300
TAFAVP
TAF
KAVP 182330Z 1900/1924 24012KT P6SM SCT050
     FM191200 23008KT P6SM SCT050 BKN250=



000
FTUS41 KBGM 182300
TAFELM
TAF
KELM 182330Z 1900/1924 24014G22KT P6SM SCT050
     FM191200 23011KT P6SM BKN040 BKN250=



000
FTUS41 KBGM 182300
TAFBGM
TAF
KBGM 182330Z 1900/1924 25012G20KT P6SM SCT050
     FM191300 23011KT P6SM SCT050 BKN250=



000
FTUS41 KBGM 182300
TAFSYR
TAF
KSYR 182330Z 1900/1924 23020G30KT P6SM -SHSN BKN050
     FM191000 26015G25KT P6SM BKN050
     FM191400 22011KT P6SM BKN050 BKN250
     FM192100 17008KT P6SM OVC040=



000
FTUS41 KBGM 182300
TAFITH
TAF
KITH 182330Z 1900/1924 24012G20KT P6SM BKN050
     FM191200 23011KT P6SM BKN050 BKN250
     FM192100 18011KT P6SM OVC040=



000
FTUS41 KBGM 182000 AAA
TAFAVP
TAF AMD
KAVP 182034Z 1821/1918 24020G30KT P6SM SCT050
     FM190000 26015G25KT P6SM SCT050
     FM190500 25012G20KT P6SM SCT050
     FM191200 23011KT P6SM SCT050 BKN250=



    US Dept of Commerce
    National Oceanic and Atmospheric Administration
    National Weather Service
    1325 East West Highway
    Silver Spring, MD 20910
    Page Author: NWS Internet Services Team
Disclaimer
Information Quality
Credits
Glossary
Privacy Policy
Freedom of Information Act (FOIA)
About Us
Career Opportunities